sensor_id;sensor_type;location;lat;lon;timestamp;P1;durP1;ratioP1;P2;durP2;ratioP2
50495;SDS011;38806;51.554;5.704;2022-11-11T00:03:07;16.33;;;8.15;;
50495;SDS011;38806;51.554;5.704;2022-11-11T00:05:08;15.25;;;8.98;;
50495;SDS011;38806;51.554;5.704;2022-11-11T00:07:08;13.98;;;7.32;;
50495;SDS011;38806;51.554;5.704;2022-11-11T00:09:08;16.30;;;7.38;;
50495;SDS011;38806;51.554;5.704;2022-11-11T00:11:09;17.48;;;7.03;;
50495;SDS011;38806;51.554;5.704;2022-11-11T00:13:10;12.77;;;6.60;;
50495;SDS011;38806;51.554;5.704;2022-11-11T00:15:10;15.25;;;7.70;;
50495;SDS011;38806;51.554;5.704;2022-11-11T00:17:11;19.30;;;7.35;;
50495;SDS011;38806;51.554;5.704;2022-11-11T00:19:32;16.42;;;7.53;;
50495;SDS011;38806;51.554;5.704;2022-11-11T00:21:51;15.40;;;7.05;;
50495;SDS011;38806;51.554;5.704;2022-11-11T00:24:23;13.48;;;6.93;;
50495;SDS011;38806;51.554;5.704;2022-11-11T00:26:42;16.30;;;7.25;;
50495;SDS011;38806;51.554;5.704;2022-11-11T00:28:42;19.58;;;8.35;;
50495;SDS011;38806;51.554;5.704;2022-11-11T00:30:42;16.77;;;10.30;;
50495;SDS011;38806;51.554;5.704;2022-11-11T00:32:42;18.10;;;8.75;;
50495;SDS011;38806;51.554;5.704;2022-11-11T00:34:43;18.13;;;9.35;;
50495;SDS011;38806;51.554;5.704;2022-11-11T00:37:03;16.05;;;9.27;;
50495;SDS011;38806;51.554;5.704;2022-11-11T00:39:03;18.10;;;9.65;;
50495;SDS011;38806;51.554;5.704;2022-11-11T00:41:03;19.58;;;8.95;;
50495;SDS011;38806;51.554;5.704;2022-11-11T00:43:03;18.23;;;9.25;;
50495;SDS011;38806;51.554;5.704;2022-11-11T00:45:04;21.10;;;10.43;;
50495;SDS011;38806;51.554;5.704;2022-11-11T00:47:05;23.35;;;10.57;;
50495;SDS011;38806;51.554;5.704;2022-11-11T00:49:24;17.40;;;10.80;;
50495;SDS011;38806;51.554;5.704;2022-11-11T00:51:50;17.05;;;10.00;;
50495;SDS011;38806;51.554;5.704;2022-11-11T00:53:50;20.92;;;12.48;;
50495;SDS011;38806;51.554;5.704;2022-11-11T00:55:50;20.77;;;10.50;;
50495;SDS011;38806;51.554;5.704;2022-11-11T00:57:51;23.52;;;12.40;;
50495;SDS011;38806;51.554;5.704;2022-11-11T00:59:51;27.40;;;11.77;;
50495;SDS011;38806;51.554;5.704;2022-11-11T01:01:51;24.27;;;12.02;;
50495;SDS011;38806;51.554;5.704;2022-11-11T01:03:51;19.65;;;11.52;;
50495;SDS011;38806;51.554;5.704;2022-11-11T01:05:51;25.85;;;12.45;;
50495;SDS011;38806;51.554;5.704;2022-11-11T01:07:51;22.15;;;15.07;;
50495;SDS011;38806;51.554;5.704;2022-11-11T01:09:52;21.95;;;12.98;;
50495;SDS011;38806;51.554;5.704;2022-11-11T01:11:52;27.02;;;12.45;;
50495;SDS011;38806;51.554;5.704;2022-11-11T01:13:52;23.33;;;12.63;;
50495;SDS011;38806;51.554;5.704;2022-11-11T01:15:56;21.00;;;14.30;;
50495;SDS011;38806;51.554;5.704;2022-11-11T01:17:57;26.25;;;14.27;;
50495;SDS011;38806;51.554;5.704;2022-11-11T01:19:57;19.55;;;11.77;;
50495;SDS011;38806;51.554;5.704;2022-11-11T01:21:57;25.40;;;13.47;;
50495;SDS011;38806;51.554;5.704;2022-11-11T01:23:57;21.17;;;12.05;;
50495;SDS011;38806;51.554;5.704;2022-11-11T01:26:05;25.88;;;13.63;;
50495;SDS011;38806;51.554;5.704;2022-11-11T01:28:05;21.70;;;11.57;;
50495;SDS011;38806;51.554;5.704;2022-11-11T01:30:06;20.50;;;12.50;;
50495;SDS011;38806;51.554;5.704;2022-11-11T01:32:06;27.58;;;14.82;;
50495;SDS011;38806;51.554;5.704;2022-11-11T01:34:06;20.52;;;14.02;;
50495;SDS011;38806;51.554;5.704;2022-11-11T01:36:08;19.88;;;11.88;;
50495;SDS011;38806;51.554;5.704;2022-11-11T01:38:08;20.00;;;11.70;;
50495;SDS011;38806;51.554;5.704;2022-11-11T01:40:09;25.33;;;13.73;;
50495;SDS011;38806;51.554;5.704;2022-11-11T01:42:09;26.95;;;13.52;;
50495;SDS011;38806;51.554;5.704;2022-11-11T01:46:15;26.80;;;14.17;;
50495;SDS011;38806;51.554;5.704;2022-11-11T01:48:28;27.13;;;14.00;;
50495;SDS011;38806;51.554;5.704;2022-11-11T01:50:47;23.38;;;13.23;;
50495;SDS011;38806;51.554;5.704;2022-11-11T01:52:47;22.27;;;13.27;;
50495;SDS011;38806;51.554;5.704;2022-11-11T01:59:13;26.40;;;14.77;;
50495;SDS011;38806;51.554;5.704;2022-11-11T02:01:16;26.88;;;16.08;;
50495;SDS011;38806;51.554;5.704;2022-11-11T02:03:16;23.80;;;14.93;;
50495;SDS011;38806;51.554;5.704;2022-11-11T02:05:19;22.20;;;14.27;;
50495;SDS011;38806;51.554;5.704;2022-11-11T02:07:38;25.23;;;15.48;;
50495;SDS011;38806;51.554;5.704;2022-11-11T02:09:40;25.88;;;15.02;;
50495;SDS011;38806;51.554;5.704;2022-11-11T02:11:41;26.58;;;15.18;;
50495;SDS011;38806;51.554;5.704;2022-11-11T02:14:20;35.88;;;16.42;;
50495;SDS011;38806;51.554;5.704;2022-11-11T02:16:35;30.02;;;16.52;;
50495;SDS011;38806;51.554;5.704;2022-11-11T02:18:36;24.98;;;15.10;;
50495;SDS011;38806;51.554;5.704;2022-11-11T02:20:37;32.17;;;15.52;;
50495;SDS011;38806;51.554;5.704;2022-11-11T02:24:37;28.53;;;17.20;;
50495;SDS011;38806;51.554;5.704;2022-11-11T02:26:38;29.10;;;17.20;;
50495;SDS011;38806;51.554;5.704;2022-11-11T02:28:38;27.02;;;15.77;;
50495;SDS011;38806;51.554;5.704;2022-11-11T02:30:40;24.52;;;14.50;;
50495;SDS011;38806;51.554;5.704;2022-11-11T02:32:41;27.63;;;16.00;;
50495;SDS011;38806;51.554;5.704;2022-11-11T02:34:41;26.33;;;16.27;;
50495;SDS011;38806;51.554;5.704;2022-11-11T02:36:42;25.88;;;14.52;;
50495;SDS011;38806;51.554;5.704;2022-11-11T02:38:42;29.50;;;18.30;;
50495;SDS011;38806;51.554;5.704;2022-11-11T02:40:43;23.85;;;14.48;;
50495;SDS011;38806;51.554;5.704;2022-11-11T02:43:03;29.45;;;14.88;;
50495;SDS011;38806;51.554;5.704;2022-11-11T02:45:03;30.20;;;15.48;;
50495;SDS011;38806;51.554;5.704;2022-11-11T02:47:03;26.40;;;16.15;;
50495;SDS011;38806;51.554;5.704;2022-11-11T02:49:04;28.65;;;14.57;;
50495;SDS011;38806;51.554;5.704;2022-11-11T02:51:04;25.30;;;15.77;;
50495;SDS011;38806;51.554;5.704;2022-11-11T02:53:05;29.40;;;16.23;;
50495;SDS011;38806;51.554;5.704;2022-11-11T02:55:06;27.88;;;15.68;;
50495;SDS011;38806;51.554;5.704;2022-11-11T02:57:06;29.23;;;15.43;;
50495;SDS011;38806;51.554;5.704;2022-11-11T02:59:06;32.08;;;18.05;;
50495;SDS011;38806;51.554;5.704;2022-11-11T03:01:06;36.53;;;16.67;;
50495;SDS011;38806;51.554;5.704;2022-11-11T03:03:07;25.77;;;14.60;;
50495;SDS011;38806;51.554;5.704;2022-11-11T03:05:07;30.58;;;17.63;;
50495;SDS011;38806;51.554;5.704;2022-11-11T03:07:07;31.10;;;18.75;;
50495;SDS011;38806;51.554;5.704;2022-11-11T03:09:07;33.00;;;18.73;;
50495;SDS011;38806;51.554;5.704;2022-11-11T03:11:07;32.85;;;17.13;;
50495;SDS011;38806;51.554;5.704;2022-11-11T03:13:08;31.55;;;16.92;;
50495;SDS011;38806;51.554;5.704;2022-11-11T03:15:08;28.88;;;19.45;;
50495;SDS011;38806;51.554;5.704;2022-11-11T03:17:08;38.55;;;19.42;;
50495;SDS011;38806;51.554;5.704;2022-11-11T03:19:28;33.97;;;19.35;;
50495;SDS011;38806;51.554;5.704;2022-11-11T03:21:28;33.08;;;18.40;;
50495;SDS011;38806;51.554;5.704;2022-11-11T03:23:28;34.60;;;21.20;;
50495;SDS011;38806;51.554;5.704;2022-11-11T03:25:28;32.08;;;21.35;;
50495;SDS011;38806;51.554;5.704;2022-11-11T03:27:47;30.13;;;19.95;;
50495;SDS011;38806;51.554;5.704;2022-11-11T03:29:47;31.43;;;19.53;;
50495;SDS011;38806;51.554;5.704;2022-11-11T03:31:47;33.45;;;20.20;;
50495;SDS011;38806;51.554;5.704;2022-11-11T03:33:47;32.60;;;20.13;;
50495;SDS011;38806;51.554;5.704;2022-11-11T03:35:48;35.03;;;22.48;;
50495;SDS011;38806;51.554;5.704;2022-11-11T03:37:48;37.17;;;20.98;;
50495;SDS011;38806;51.554;5.704;2022-11-11T03:40:07;34.30;;;19.83;;
50495;SDS011;38806;51.554;5.704;2022-11-11T03:42:07;35.75;;;21.88;;
50495;SDS011;38806;51.554;5.704;2022-11-11T03:44:08;34.42;;;21.13;;
50495;SDS011;38806;51.554;5.704;2022-11-11T03:46:08;32.08;;;19.88;;
50495;SDS011;38806;51.554;5.704;2022-11-11T03:48:08;32.72;;;20.88;;
50495;SDS011;38806;51.554;5.704;2022-11-11T03:50:09;32.72;;;19.70;;
50495;SDS011;38806;51.554;5.704;2022-11-11T03:52:09;36.03;;;19.77;;
50495;SDS011;38806;51.554;5.704;2022-11-11T03:54:09;31.93;;;18.67;;
50495;SDS011;38806;51.554;5.704;2022-11-11T03:56:09;32.67;;;20.00;;
50495;SDS011;38806;51.554;5.704;2022-11-11T03:58:09;40.10;;;21.70;;
50495;SDS011;38806;51.554;5.704;2022-11-11T04:00:14;42.92;;;22.20;;
50495;SDS011;38806;51.554;5.704;2022-11-11T04:02:15;36.97;;;21.48;;
50495;SDS011;38806;51.554;5.704;2022-11-11T04:04:34;37.15;;;20.67;;
50495;SDS011;38806;51.554;5.704;2022-11-11T04:06:53;40.40;;;22.40;;
50495;SDS011;38806;51.554;5.704;2022-11-11T04:09:12;38.90;;;21.98;;
50495;SDS011;38806;51.554;5.704;2022-11-11T04:11:35;38.35;;;22.27;;
50495;SDS011;38806;51.554;5.704;2022-11-11T04:13:37;46.45;;;24.02;;
50495;SDS011;38806;51.554;5.704;2022-11-11T04:15:56;44.33;;;23.83;;
50495;SDS011;38806;51.554;5.704;2022-11-11T04:18:06;42.40;;;22.52;;
50495;SDS011;38806;51.554;5.704;2022-11-11T04:20:06;38.35;;;20.65;;
50495;SDS011;38806;51.554;5.704;2022-11-11T04:22:25;40.55;;;21.70;;
50495;SDS011;38806;51.554;5.704;2022-11-11T04:24:25;34.88;;;21.58;;
50495;SDS011;38806;51.554;5.704;2022-11-11T04:26:44;35.30;;;20.73;;
50495;SDS011;38806;51.554;5.704;2022-11-11T04:28:44;38.05;;;22.48;;
50495;SDS011;38806;51.554;5.704;2022-11-11T04:31:13;32.65;;;20.63;;
50495;SDS011;38806;51.554;5.704;2022-11-11T04:33:13;39.63;;;23.77;;
50495;SDS011;38806;51.554;5.704;2022-11-11T04:35:14;36.00;;;20.60;;
50495;SDS011;38806;51.554;5.704;2022-11-11T04:37:14;35.45;;;19.67;;
50495;SDS011;38806;51.554;5.704;2022-11-11T04:39:14;30.42;;;17.58;;
50495;SDS011;38806;51.554;5.704;2022-11-11T04:41:33;28.45;;;16.55;;
50495;SDS011;38806;51.554;5.704;2022-11-11T04:43:34;29.67;;;17.20;;
50495;SDS011;38806;51.554;5.704;2022-11-11T04:45:57;32.15;;;18.58;;
50495;SDS011;38806;51.554;5.704;2022-11-11T04:48:01;29.92;;;16.45;;
50495;SDS011;38806;51.554;5.704;2022-11-11T04:50:02;25.17;;;16.02;;
50495;SDS011;38806;51.554;5.704;2022-11-11T04:52:02;31.98;;;16.88;;
50495;SDS011;38806;51.554;5.704;2022-11-11T04:54:21;30.40;;;16.30;;
50495;SDS011;38806;51.554;5.704;2022-11-11T04:56:21;32.08;;;18.25;;
50495;SDS011;38806;51.554;5.704;2022-11-11T04:58:40;34.47;;;17.30;;
50495;SDS011;38806;51.554;5.704;2022-11-11T05:00:40;29.92;;;15.98;;
50495;SDS011;38806;51.554;5.704;2022-11-11T05:02:41;33.15;;;17.27;;
50495;SDS011;38806;51.554;5.704;2022-11-11T05:04:59;32.10;;;18.50;;
50495;SDS011;38806;51.554;5.704;2022-11-11T05:06:59;32.28;;;17.30;;
50495;SDS011;38806;51.554;5.704;2022-11-11T05:09:18;34.50;;;20.02;;
50495;SDS011;38806;51.554;5.704;2022-11-11T05:11:19;32.25;;;17.33;;
50495;SDS011;38806;51.554;5.704;2022-11-11T05:13:19;33.88;;;18.95;;
50495;SDS011;38806;51.554;5.704;2022-11-11T05:15:38;32.03;;;18.23;;
50495;SDS011;38806;51.554;5.704;2022-11-11T05:17:58;31.52;;;17.23;;
50495;SDS011;38806;51.554;5.704;2022-11-11T05:20:17;30.67;;;15.75;;
50495;SDS011;38806;51.554;5.704;2022-11-11T05:22:37;27.85;;;14.07;;
50495;SDS011;38806;51.554;5.704;2022-11-11T05:24:37;26.92;;;15.50;;
50495;SDS011;38806;51.554;5.704;2022-11-11T05:26:56;27.58;;;15.20;;
50495;SDS011;38806;51.554;5.704;2022-11-11T05:28:56;35.33;;;16.55;;
50495;SDS011;38806;51.554;5.704;2022-11-11T05:30:56;39.28;;;16.58;;
50495;SDS011;38806;51.554;5.704;2022-11-11T05:32:57;29.77;;;17.13;;
50495;SDS011;38806;51.554;5.704;2022-11-11T05:34:57;25.77;;;14.70;;
50495;SDS011;38806;51.554;5.704;2022-11-11T05:36:57;36.90;;;15.88;;
50495;SDS011;38806;51.554;5.704;2022-11-11T05:38:57;24.70;;;14.02;;
50495;SDS011;38806;51.554;5.704;2022-11-11T05:40:57;27.63;;;13.85;;
50495;SDS011;38806;51.554;5.704;2022-11-11T05:42:57;25.85;;;12.68;;
50495;SDS011;38806;51.554;5.704;2022-11-11T05:44:58;33.20;;;16.48;;
50495;SDS011;38806;51.554;5.704;2022-11-11T05:46:58;28.08;;;14.82;;
50495;SDS011;38806;51.554;5.704;2022-11-11T05:48:58;37.30;;;14.85;;
50495;SDS011;38806;51.554;5.704;2022-11-11T05:53:26;30.30;;;14.88;;
50495;SDS011;38806;51.554;5.704;2022-11-11T05:55:27;35.55;;;17.60;;
50495;SDS011;38806;51.554;5.704;2022-11-11T05:57:27;34.45;;;16.40;;
50495;SDS011;38806;51.554;5.704;2022-11-11T05:59:27;28.95;;;15.35;;
50495;SDS011;38806;51.554;5.704;2022-11-11T06:01:28;30.38;;;15.90;;
50495;SDS011;38806;51.554;5.704;2022-11-11T06:03:28;25.75;;;14.18;;
50495;SDS011;38806;51.554;5.704;2022-11-11T06:05:28;27.50;;;15.35;;
50495;SDS011;38806;51.554;5.704;2022-11-11T06:07:28;29.85;;;14.95;;
50495;SDS011;38806;51.554;5.704;2022-11-11T06:09:29;30.20;;;14.48;;
50495;SDS011;38806;51.554;5.704;2022-11-11T06:11:29;37.25;;;16.77;;
50495;SDS011;38806;51.554;5.704;2022-11-11T06:13:29;29.90;;;14.82;;
50495;SDS011;38806;51.554;5.704;2022-11-11T06:15:30;25.38;;;13.00;;
50495;SDS011;38806;51.554;5.704;2022-11-11T06:17:32;31.40;;;16.80;;
50495;SDS011;38806;51.554;5.704;2022-11-11T06:19:32;30.80;;;15.65;;
50495;SDS011;38806;51.554;5.704;2022-11-11T06:21:32;34.60;;;15.73;;
50495;SDS011;38806;51.554;5.704;2022-11-11T06:23:53;26.55;;;13.50;;
50495;SDS011;38806;51.554;5.704;2022-11-11T06:25:53;27.75;;;13.90;;
50495;SDS011;38806;51.554;5.704;2022-11-11T06:28:12;26.80;;;14.35;;
50495;SDS011;38806;51.554;5.704;2022-11-11T06:30:12;22.70;;;11.77;;
50495;SDS011;38806;51.554;5.704;2022-11-11T06:32:12;26.05;;;11.55;;
50495;SDS011;38806;51.554;5.704;2022-11-11T06:34:12;26.35;;;13.40;;
50495;SDS011;38806;51.554;5.704;2022-11-11T06:36:13;26.83;;;12.48;;
50495;SDS011;38806;51.554;5.704;2022-11-11T06:38:14;26.45;;;13.45;;
50495;SDS011;38806;51.554;5.704;2022-11-11T06:40:14;26.95;;;13.68;;
50495;SDS011;38806;51.554;5.704;2022-11-11T06:42:14;20.40;;;10.82;;
50495;SDS011;38806;51.554;5.704;2022-11-11T06:44:15;24.25;;;11.57;;
50495;SDS011;38806;51.554;5.704;2022-11-11T06:46:16;20.27;;;11.07;;
50495;SDS011;38806;51.554;5.704;2022-11-11T06:48:17;21.95;;;10.80;;
50495;SDS011;38806;51.554;5.704;2022-11-11T06:50:17;23.52;;;10.88;;
50495;SDS011;38806;51.554;5.704;2022-11-11T06:52:17;19.33;;;10.85;;
50495;SDS011;38806;51.554;5.704;2022-11-11T06:54:18;22.88;;;11.50;;
50495;SDS011;38806;51.554;5.704;2022-11-11T06:56:18;21.42;;;11.07;;
50495;SDS011;38806;51.554;5.704;2022-11-11T06:58:18;27.77;;;11.93;;
50495;SDS011;38806;51.554;5.704;2022-11-11T07:00:19;22.15;;;10.73;;
50495;SDS011;38806;51.554;5.704;2022-11-11T07:02:19;20.63;;;10.32;;
50495;SDS011;38806;51.554;5.704;2022-11-11T07:04:19;20.92;;;9.68;;
50495;SDS011;38806;51.554;5.704;2022-11-11T07:06:19;25.40;;;10.68;;
50495;SDS011;38806;51.554;5.704;2022-11-11T07:08:20;20.63;;;11.20;;
50495;SDS011;38806;51.554;5.704;2022-11-11T07:10:20;20.77;;;10.32;;
50495;SDS011;38806;51.554;5.704;2022-11-11T07:12:21;24.45;;;10.18;;
50495;SDS011;38806;51.554;5.704;2022-11-11T07:14:21;21.63;;;9.45;;
50495;SDS011;38806;51.554;5.704;2022-11-11T07:16:21;33.05;;;13.75;;
50495;SDS011;38806;51.554;5.704;2022-11-11T07:18:21;21.00;;;9.02;;
50495;SDS011;38806;51.554;5.704;2022-11-11T07:20:21;16.95;;;9.30;;
50495;SDS011;38806;51.554;5.704;2022-11-11T07:22:22;16.20;;;9.35;;
50495;SDS011;38806;51.554;5.704;2022-11-11T07:24:22;21.10;;;9.57;;
50495;SDS011;38806;51.554;5.704;2022-11-11T07:26:22;17.40;;;8.65;;
50495;SDS011;38806;51.554;5.704;2022-11-11T07:28:22;15.25;;;8.75;;
50495;SDS011;38806;51.554;5.704;2022-11-11T07:30:24;17.13;;;9.13;;
50495;SDS011;38806;51.554;5.704;2022-11-11T07:32:24;16.65;;;9.35;;
50495;SDS011;38806;51.554;5.704;2022-11-11T07:34:24;18.88;;;9.85;;
50495;SDS011;38806;51.554;5.704;2022-11-11T07:36:24;20.35;;;9.68;;
50495;SDS011;38806;51.554;5.704;2022-11-11T07:38:25;15.23;;;8.48;;
50495;SDS011;38806;51.554;5.704;2022-11-11T07:40:25;16.40;;;9.25;;
50495;SDS011;38806;51.554;5.704;2022-11-11T07:42:25;17.20;;;8.60;;
50495;SDS011;38806;51.554;5.704;2022-11-11T07:44:25;15.70;;;8.98;;
50495;SDS011;38806;51.554;5.704;2022-11-11T07:46:25;17.15;;;8.80;;
50495;SDS011;38806;51.554;5.704;2022-11-11T07:48:25;14.20;;;7.65;;
50495;SDS011;38806;51.554;5.704;2022-11-11T07:50:26;14.60;;;7.55;;
50495;SDS011;38806;51.554;5.704;2022-11-11T07:52:26;17.70;;;7.80;;
50495;SDS011;38806;51.554;5.704;2022-11-11T07:54:26;18.08;;;8.68;;
50495;SDS011;38806;51.554;5.704;2022-11-11T07:56:26;15.27;;;7.93;;
50495;SDS011;38806;51.554;5.704;2022-11-11T07:58:27;15.07;;;7.78;;
50495;SDS011;38806;51.554;5.704;2022-11-11T08:00:27;15.63;;;8.27;;
50495;SDS011;38806;51.554;5.704;2022-11-11T08:02:27;15.25;;;7.40;;
50495;SDS011;38806;51.554;5.704;2022-11-11T08:04:27;14.25;;;7.07;;
50495;SDS011;38806;51.554;5.704;2022-11-11T08:06:27;17.30;;;7.97;;
50495;SDS011;38806;51.554;5.704;2022-11-11T08:08:28;11.23;;;6.97;;
50495;SDS011;38806;51.554;5.704;2022-11-11T08:10:28;17.23;;;8.23;;
50495;SDS011;38806;51.554;5.704;2022-11-11T08:12:29;20.90;;;8.15;;
50495;SDS011;38806;51.554;5.704;2022-11-11T08:14:48;12.48;;;6.35;;
50495;SDS011;38806;51.554;5.704;2022-11-11T08:16:48;14.80;;;7.07;;
50495;SDS011;38806;51.554;5.704;2022-11-11T08:18:48;15.00;;;6.60;;
50495;SDS011;38806;51.554;5.704;2022-11-11T08:20:48;12.70;;;6.55;;
50495;SDS011;38806;51.554;5.704;2022-11-11T08:22:48;19.75;;;7.25;;
50495;SDS011;38806;51.554;5.704;2022-11-11T08:24:51;14.52;;;6.40;;
50495;SDS011;38806;51.554;5.704;2022-11-11T08:26:52;11.70;;;6.03;;
50495;SDS011;38806;51.554;5.704;2022-11-11T08:28:53;12.73;;;6.30;;
50495;SDS011;38806;51.554;5.704;2022-11-11T08:30:53;12.02;;;6.18;;
50495;SDS011;38806;51.554;5.704;2022-11-11T08:32:59;10.98;;;5.93;;
50495;SDS011;38806;51.554;5.704;2022-11-11T08:35:00;13.27;;;6.50;;
50495;SDS011;38806;51.554;5.704;2022-11-11T08:37:00;13.48;;;6.85;;
50495;SDS011;38806;51.554;5.704;2022-11-11T08:39:00;9.48;;;6.00;;
50495;SDS011;38806;51.554;5.704;2022-11-11T08:41:00;15.90;;;7.57;;
50495;SDS011;38806;51.554;5.704;2022-11-11T08:43:01;20.42;;;5.30;;
50495;SDS011;38806;51.554;5.704;2022-11-11T08:45:01;11.07;;;5.18;;
50495;SDS011;38806;51.554;5.704;2022-11-11T08:47:01;10.82;;;5.15;;
50495;SDS011;38806;51.554;5.704;2022-11-11T08:49:01;12.18;;;6.22;;
50495;SDS011;38806;51.554;5.704;2022-11-11T08:51:02;10.63;;;5.70;;
50495;SDS011;38806;51.554;5.704;2022-11-11T08:53:02;9.32;;;5.38;;
50495;SDS011;38806;51.554;5.704;2022-11-11T08:55:02;10.35;;;4.32;;
50495;SDS011;38806;51.554;5.704;2022-11-11T08:57:03;9.52;;;5.38;;
50495;SDS011;38806;51.554;5.704;2022-11-11T08:59:03;9.63;;;4.53;;
50495;SDS011;38806;51.554;5.704;2022-11-11T09:01:03;12.45;;;5.88;;
50495;SDS011;38806;51.554;5.704;2022-11-11T09:03:04;13.25;;;5.90;;
50495;SDS011;38806;51.554;5.704;2022-11-11T09:05:05;12.18;;;4.38;;
50495;SDS011;38806;51.554;5.704;2022-11-11T09:07:06;8.85;;;4.35;;
50495;SDS011;38806;51.554;5.704;2022-11-11T09:09:06;10.48;;;5.35;;
50495;SDS011;38806;51.554;5.704;2022-11-11T09:11:06;9.60;;;4.20;;
50495;SDS011;38806;51.554;5.704;2022-11-11T09:13:07;8.45;;;4.22;;
50495;SDS011;38806;51.554;5.704;2022-11-11T09:15:07;9.10;;;4.07;;
50495;SDS011;38806;51.554;5.704;2022-11-11T09:17:07;8.80;;;5.22;;
50495;SDS011;38806;51.554;5.704;2022-11-11T09:19:08;10.10;;;4.85;;
50495;SDS011;38806;51.554;5.704;2022-11-11T09:21:08;9.35;;;4.93;;
50495;SDS011;38806;51.554;5.704;2022-11-11T09:23:08;8.40;;;4.15;;
50495;SDS011;38806;51.554;5.704;2022-11-11T09:25:08;9.95;;;4.57;;
50495;SDS011;38806;51.554;5.704;2022-11-11T09:27:09;6.95;;;4.20;;
50495;SDS011;38806;51.554;5.704;2022-11-11T09:29:09;10.95;;;4.70;;
50495;SDS011;38806;51.554;5.704;2022-11-11T09:31:09;7.77;;;4.57;;
50495;SDS011;38806;51.554;5.704;2022-11-11T09:33:10;8.77;;;4.87;;
50495;SDS011;38806;51.554;5.704;2022-11-11T09:35:11;8.98;;;5.18;;
50495;SDS011;38806;51.554;5.704;2022-11-11T09:37:11;8.37;;;4.13;;
50495;SDS011;38806;51.554;5.704;2022-11-11T09:39:12;9.65;;;4.03;;
50495;SDS011;38806;51.554;5.704;2022-11-11T09:43:41;11.45;;;5.15;;
50495;SDS011;38806;51.554;5.704;2022-11-11T09:50:02;9.18;;;4.20;;
50495;SDS011;38806;51.554;5.704;2022-11-11T09:52:05;9.00;;;4.22;;
50495;SDS011;38806;51.554;5.704;2022-11-11T09:54:11;11.35;;;4.03;;
50495;SDS011;38806;51.554;5.704;2022-11-11T09:56:14;8.65;;;4.00;;
50495;SDS011;38806;51.554;5.704;2022-11-11T09:58:21;7.93;;;4.13;;
50495;SDS011;38806;51.554;5.704;2022-11-11T10:00:23;7.82;;;4.22;;
50495;SDS011;38806;51.554;5.704;2022-11-11T10:04:33;10.38;;;5.03;;
50495;SDS011;38806;51.554;5.704;2022-11-11T10:06:34;8.20;;;3.88;;
50495;SDS011;38806;51.554;5.704;2022-11-11T10:08:41;6.10;;;4.30;;
50495;SDS011;38806;51.554;5.704;2022-11-11T10:10:46;7.35;;;3.65;;
50495;SDS011;38806;51.554;5.704;2022-11-11T10:12:55;9.00;;;3.95;;
50495;SDS011;38806;51.554;5.704;2022-11-11T10:14:55;7.38;;;3.60;;
50495;SDS011;38806;51.554;5.704;2022-11-11T10:20:59;11.67;;;3.80;;
50495;SDS011;38806;51.554;5.704;2022-11-11T10:23:08;8.05;;;4.30;;
50495;SDS011;38806;51.554;5.704;2022-11-11T10:27:13;5.53;;;3.58;;
50495;SDS011;38806;51.554;5.704;2022-11-11T10:29:16;7.65;;;3.88;;
50495;SDS011;38806;51.554;5.704;2022-11-11T10:31:18;6.95;;;3.10;;
50495;SDS011;38806;51.554;5.704;2022-11-11T10:33:23;6.75;;;3.30;;
50495;SDS011;38806;51.554;5.704;2022-11-11T10:35:26;6.88;;;3.45;;
50495;SDS011;38806;51.554;5.704;2022-11-11T10:37:29;5.38;;;2.78;;
50495;SDS011;38806;51.554;5.704;2022-11-11T10:41:53;6.45;;;3.97;;
50495;SDS011;38806;51.554;5.704;2022-11-11T10:43:53;7.22;;;3.05;;
50495;SDS011;38806;51.554;5.704;2022-11-11T10:46:04;6.55;;;2.83;;
50495;SDS011;38806;51.554;5.704;2022-11-11T10:48:08;8.20;;;4.10;;
50495;SDS011;38806;51.554;5.704;2022-11-11T10:52:23;7.28;;;2.95;;
50495;SDS011;38806;51.554;5.704;2022-11-11T10:54:25;6.50;;;2.90;;
50495;SDS011;38806;51.554;5.704;2022-11-11T10:59:10;5.78;;;2.72;;
50495;SDS011;38806;51.554;5.704;2022-11-11T11:01:14;4.88;;;2.78;;
50495;SDS011;38806;51.554;5.704;2022-11-11T11:03:30;5.47;;;2.78;;
50495;SDS011;38806;51.554;5.704;2022-11-11T11:05:43;9.70;;;3.20;;
50495;SDS011;38806;51.554;5.704;2022-11-11T11:07:48;5.68;;;1.85;;
50495;SDS011;38806;51.554;5.704;2022-11-11T11:10:00;4.40;;;2.17;;
50495;SDS011;38806;51.554;5.704;2022-11-11T11:14:02;4.43;;;2.30;;
50495;SDS011;38806;51.554;5.704;2022-11-11T11:16:06;7.45;;;2.28;;
50495;SDS011;38806;51.554;5.704;2022-11-11T11:18:09;4.78;;;2.50;;
50495;SDS011;38806;51.554;5.704;2022-11-11T11:20:12;4.20;;;2.13;;
50495;SDS011;38806;51.554;5.704;2022-11-11T11:22:13;4.65;;;2.20;;
50495;SDS011;38806;51.554;5.704;2022-11-11T11:24:24;5.35;;;2.33;;
50495;SDS011;38806;51.554;5.704;2022-11-11T11:26:24;7.07;;;2.08;;
50495;SDS011;38806;51.554;5.704;2022-11-11T11:28:51;3.58;;;1.67;;
50495;SDS011;38806;51.554;5.704;2022-11-11T11:31:02;4.88;;;1.65;;
50495;SDS011;38806;51.554;5.704;2022-11-11T11:33:04;4.00;;;1.83;;
50495;SDS011;38806;51.554;5.704;2022-11-11T11:35:04;4.63;;;2.05;;
50495;SDS011;38806;51.554;5.704;2022-11-11T11:37:05;5.63;;;2.47;;
50495;SDS011;38806;51.554;5.704;2022-11-11T11:39:05;5.13;;;2.40;;
50495;SDS011;38806;51.554;5.704;2022-11-11T11:41:05;5.05;;;2.17;;
50495;SDS011;38806;51.554;5.704;2022-11-11T11:43:15;4.28;;;2.45;;
50495;SDS011;38806;51.554;5.704;2022-11-11T11:45:24;5.93;;;2.35;;
50495;SDS011;38806;51.554;5.704;2022-11-11T11:55:50;4.33;;;1.67;;
50495;SDS011;38806;51.554;5.704;2022-11-11T12:00:11;4.90;;;2.40;;
50495;SDS011;38806;51.554;5.704;2022-11-11T12:10:48;3.65;;;2.30;;
50495;SDS011;38806;51.554;5.704;2022-11-11T12:13:03;4.53;;;1.77;;
50495;SDS011;38806;51.554;5.704;2022-11-11T12:15:22;6.43;;;1.95;;
50495;SDS011;38806;51.554;5.704;2022-11-11T12:24:01;3.63;;;1.37;;
50495;SDS011;38806;51.554;5.704;2022-11-11T12:30:25;4.03;;;1.70;;
50495;SDS011;38806;51.554;5.704;2022-11-11T12:32:49;4.30;;;1.65;;
50495;SDS011;38806;51.554;5.704;2022-11-11T12:36:57;6.20;;;1.93;;
50495;SDS011;38806;51.554;5.704;2022-11-11T12:39:02;6.78;;;2.05;;
50495;SDS011;38806;51.554;5.704;2022-11-11T12:47:16;8.73;;;2.00;;
50495;SDS011;38806;51.554;5.704;2022-11-11T12:55:56;2.42;;;1.35;;
50495;SDS011;38806;51.554;5.704;2022-11-11T13:00:19;7.30;;;1.92;;
50495;SDS011;38806;51.554;5.704;2022-11-11T13:10:35;3.37;;;1.77;;
50495;SDS011;38806;51.554;5.704;2022-11-11T13:15:30;6.15;;;2.22;;
50495;SDS011;38806;51.554;5.704;2022-11-11T13:17:12;4.88;;;1.98;;
50495;SDS011;38806;51.554;5.704;2022-11-11T13:21:47;3.70;;;2.00;;
50495;SDS011;38806;51.554;5.704;2022-11-11T13:23:49;3.22;;;1.85;;
50495;SDS011;38806;51.554;5.704;2022-11-11T13:25:53;3.67;;;1.90;;
50495;SDS011;38806;51.554;5.704;2022-11-11T13:28:00;4.70;;;2.00;;
50495;SDS011;38806;51.554;5.704;2022-11-11T13:32:04;5.95;;;1.85;;
50495;SDS011;38806;51.554;5.704;2022-11-11T13:34:08;3.30;;;1.40;;
50495;SDS011;38806;51.554;5.704;2022-11-11T13:36:11;4.60;;;1.88;;
50495;SDS011;38806;51.554;5.704;2022-11-11T13:38:21;4.32;;;2.63;;
50495;SDS011;38806;51.554;5.704;2022-11-11T13:40:29;4.47;;;1.80;;
50495;SDS011;38806;51.554;5.704;2022-11-11T13:42:36;6.10;;;1.90;;
50495;SDS011;38806;51.554;5.704;2022-11-11T13:46:46;4.65;;;1.92;;
50495;SDS011;38806;51.554;5.704;2022-11-11T13:48:47;5.68;;;1.80;;
50495;SDS011;38806;51.554;5.704;2022-11-11T13:50:48;5.43;;;1.58;;
50495;SDS011;38806;51.554;5.704;2022-11-11T13:53:04;5.13;;;2.13;;